sensor_id;sensor_type;location;lat;lon;timestamp;P1;durP1;ratioP1;P2;durP2;ratioP2
77880;SDS011;67077;50.298;18.996;2023-12-20T00:01:32;12.60;;;7.40;;
77880;SDS011;67077;50.298;18.996;2023-12-20T00:03:59;12.50;;;7.20;;
77880;SDS011;67077;50.298;18.996;2023-12-20T00:06:27;13.40;;;7.50;;
77880;SDS011;67077;50.298;18.996;2023-12-20T00:08:55;11.40;;;6.90;;
77880;SDS011;67077;50.298;18.996;2023-12-20T00:11:23;14.00;;;7.70;;
77880;SDS011;67077;50.298;18.996;2023-12-20T00:13:51;13.50;;;7.30;;
77880;SDS011;67077;50.298;18.996;2023-12-20T00:16:19;13.80;;;7.50;;
77880;SDS011;67077;50.298;18.996;2023-12-20T00:18:47;15.80;;;8.00;;
77880;SDS011;67077;50.298;18.996;2023-12-20T00:21:14;13.00;;;7.40;;
77880;SDS011;67077;50.298;18.996;2023-12-20T00:23:42;15.90;;;7.80;;
77880;SDS011;67077;50.298;18.996;2023-12-20T00:26:10;12.90;;;7.80;;
77880;SDS011;67077;50.298;18.996;2023-12-20T00:28:38;11.80;;;7.10;;
77880;SDS011;67077;50.298;18.996;2023-12-20T00:31:06;15.70;;;8.00;;
77880;SDS011;67077;50.298;18.996;2023-12-20T00:33:33;12.40;;;7.40;;
77880;SDS011;67077;50.298;18.996;2023-12-20T00:36:01;14.30;;;6.80;;
77880;SDS011;67077;50.298;18.996;2023-12-20T00:38:29;15.20;;;7.40;;
77880;SDS011;67077;50.298;18.996;2023-12-20T00:40:57;15.80;;;7.30;;
77880;SDS011;67077;50.298;18.996;2023-12-20T00:43:25;15.10;;;7.80;;
77880;SDS011;67077;50.298;18.996;2023-12-20T00:45:53;12.90;;;7.40;;
77880;SDS011;67077;50.298;18.996;2023-12-20T00:48:21;12.60;;;7.40;;
77880;SDS011;67077;50.298;18.996;2023-12-20T00:50:49;13.30;;;6.70;;
77880;SDS011;67077;50.298;18.996;2023-12-20T00:53:16;12.30;;;6.70;;
77880;SDS011;67077;50.298;18.996;2023-12-20T00:55:44;12.80;;;6.80;;
77880;SDS011;67077;50.298;18.996;2023-12-20T00:58:12;12.70;;;7.20;;
77880;SDS011;67077;50.298;18.996;2023-12-20T01:00:42;12.40;;;6.60;;
77880;SDS011;67077;50.298;18.996;2023-12-20T01:03:11;12.40;;;6.50;;
77880;SDS011;67077;50.298;18.996;2023-12-20T01:05:39;11.90;;;6.60;;
77880;SDS011;67077;50.298;18.996;2023-12-20T01:08:06;12.40;;;6.20;;
77880;SDS011;67077;50.298;18.996;2023-12-20T01:10:34;10.50;;;6.30;;
77880;SDS011;67077;50.298;18.996;2023-12-20T01:13:02;12.00;;;6.90;;
77880;SDS011;67077;50.298;18.996;2023-12-20T01:15:30;10.60;;;5.90;;
77880;SDS011;67077;50.298;18.996;2023-12-20T01:17:57;12.10;;;5.70;;
77880;SDS011;67077;50.298;18.996;2023-12-20T01:20:27;9.40;;;5.50;;
77880;SDS011;67077;50.298;18.996;2023-12-20T01:22:54;10.90;;;5.80;;
77880;SDS011;67077;50.298;18.996;2023-12-20T01:25:22;10.40;;;6.20;;
77880;SDS011;67077;50.298;18.996;2023-12-20T01:27:50;12.40;;;6.60;;
77880;SDS011;67077;50.298;18.996;2023-12-20T01:30:17;10.10;;;5.80;;
77880;SDS011;67077;50.298;18.996;2023-12-20T01:32:45;10.00;;;5.80;;
77880;SDS011;67077;50.298;18.996;2023-12-20T01:35:13;10.10;;;5.90;;
77880;SDS011;67077;50.298;18.996;2023-12-20T01:37:41;9.40;;;5.50;;
77880;SDS011;67077;50.298;18.996;2023-12-20T01:40:09;9.60;;;5.80;;
77880;SDS011;67077;50.298;18.996;2023-12-20T01:42:37;8.70;;;6.00;;
77880;SDS011;67077;50.298;18.996;2023-12-20T01:45:05;9.20;;;5.60;;
77880;SDS011;67077;50.298;18.996;2023-12-20T01:47:33;10.90;;;6.30;;
77880;SDS011;67077;50.298;18.996;2023-12-20T01:50:01;9.60;;;5.60;;
77880;SDS011;67077;50.298;18.996;2023-12-20T01:52:31;11.00;;;6.40;;
77880;SDS011;67077;50.298;18.996;2023-12-20T01:55:01;10.30;;;6.40;;
77880;SDS011;67077;50.298;18.996;2023-12-20T01:57:31;10.70;;;6.20;;
77880;SDS011;67077;50.298;18.996;2023-12-20T02:00:00;10.90;;;6.10;;
77880;SDS011;67077;50.298;18.996;2023-12-20T02:02:28;10.50;;;6.20;;
77880;SDS011;67077;50.298;18.996;2023-12-20T02:04:57;11.70;;;6.70;;
77880;SDS011;67077;50.298;18.996;2023-12-20T02:07:25;12.60;;;6.70;;
77880;SDS011;67077;50.298;18.996;2023-12-20T02:09:54;12.00;;;6.70;;
77880;SDS011;67077;50.298;18.996;2023-12-20T02:12:22;12.70;;;7.40;;
77880;SDS011;67077;50.298;18.996;2023-12-20T02:14:50;13.40;;;7.40;;
77880;SDS011;67077;50.298;18.996;2023-12-20T02:17:18;12.90;;;7.40;;
77880;SDS011;67077;50.298;18.996;2023-12-20T02:19:46;12.30;;;7.30;;
77880;SDS011;67077;50.298;18.996;2023-12-20T02:22:14;12.70;;;6.80;;
77880;SDS011;67077;50.298;18.996;2023-12-20T02:24:42;12.40;;;7.10;;
77880;SDS011;67077;50.298;18.996;2023-12-20T02:27:09;11.90;;;7.20;;
77880;SDS011;67077;50.298;18.996;2023-12-20T02:29:38;11.90;;;7.30;;
77880;SDS011;67077;50.298;18.996;2023-12-20T02:32:05;10.70;;;7.00;;
77880;SDS011;67077;50.298;18.996;2023-12-20T02:34:33;12.70;;;7.30;;
77880;SDS011;67077;50.298;18.996;2023-12-20T02:37:01;13.70;;;7.50;;
77880;SDS011;67077;50.298;18.996;2023-12-20T02:39:30;13.60;;;7.70;;
77880;SDS011;67077;50.298;18.996;2023-12-20T02:41:58;10.80;;;7.10;;
77880;SDS011;67077;50.298;18.996;2023-12-20T02:44:26;12.40;;;7.30;;
77880;SDS011;67077;50.298;18.996;2023-12-20T02:46:53;12.60;;;7.60;;
77880;SDS011;67077;50.298;18.996;2023-12-20T02:49:21;12.70;;;7.80;;
77880;SDS011;67077;50.298;18.996;2023-12-20T02:51:49;15.20;;;8.00;;
77880;SDS011;67077;50.298;18.996;2023-12-20T02:54:16;13.80;;;8.40;;
77880;SDS011;67077;50.298;18.996;2023-12-20T02:56:44;15.50;;;8.60;;
77880;SDS011;67077;50.298;18.996;2023-12-20T02:59:12;14.00;;;8.00;;
77880;SDS011;67077;50.298;18.996;2023-12-20T03:01:43;15.50;;;8.30;;
77880;SDS011;67077;50.298;18.996;2023-12-20T03:04:12;15.70;;;8.50;;
77880;SDS011;67077;50.298;18.996;2023-12-20T03:06:40;13.90;;;8.70;;
77880;SDS011;67077;50.298;18.996;2023-12-20T03:09:08;13.80;;;7.90;;
77880;SDS011;67077;50.298;18.996;2023-12-20T03:11:36;13.40;;;8.40;;
77880;SDS011;67077;50.298;18.996;2023-12-20T03:14:03;16.30;;;9.50;;
77880;SDS011;67077;50.298;18.996;2023-12-20T03:16:31;16.00;;;9.00;;
77880;SDS011;67077;50.298;18.996;2023-12-20T03:19:00;16.60;;;9.80;;
77880;SDS011;67077;50.298;18.996;2023-12-20T03:21:28;15.00;;;9.40;;
77880;SDS011;67077;50.298;18.996;2023-12-20T03:23:56;14.00;;;7.70;;
77880;SDS011;67077;50.298;18.996;2023-12-20T03:26:23;17.20;;;10.00;;
77880;SDS011;67077;50.298;18.996;2023-12-20T03:28:51;17.00;;;10.40;;
77880;SDS011;67077;50.298;18.996;2023-12-20T03:31:19;18.30;;;10.30;;
77880;SDS011;67077;50.298;18.996;2023-12-20T03:33:48;16.70;;;10.30;;
77880;SDS011;67077;50.298;18.996;2023-12-20T03:36:16;15.00;;;9.80;;
77880;SDS011;67077;50.298;18.996;2023-12-20T03:38:44;21.30;;;11.20;;
77880;SDS011;67077;50.298;18.996;2023-12-20T03:41:12;18.30;;;11.00;;
77880;SDS011;67077;50.298;18.996;2023-12-20T03:43:40;15.00;;;9.80;;
77880;SDS011;67077;50.298;18.996;2023-12-20T03:46:09;17.60;;;10.10;;
77880;SDS011;67077;50.298;18.996;2023-12-20T03:48:36;18.50;;;10.40;;
77880;SDS011;67077;50.298;18.996;2023-12-20T03:51:04;18.70;;;10.90;;
77880;SDS011;67077;50.298;18.996;2023-12-20T03:53:32;18.10;;;10.60;;
77880;SDS011;67077;50.298;18.996;2023-12-20T03:56:00;16.40;;;10.00;;
77880;SDS011;67077;50.298;18.996;2023-12-20T03:58:28;18.00;;;10.50;;
77880;SDS011;67077;50.298;18.996;2023-12-20T04:00:55;21.70;;;10.80;;
77880;SDS011;67077;50.298;18.996;2023-12-20T04:03:23;17.20;;;10.60;;
77880;SDS011;67077;50.298;18.996;2023-12-20T04:05:51;17.90;;;10.20;;
77880;SDS011;67077;50.298;18.996;2023-12-20T04:08:19;17.50;;;10.50;;
77880;SDS011;67077;50.298;18.996;2023-12-20T04:10:46;19.10;;;11.20;;
77880;SDS011;67077;50.298;18.996;2023-12-20T04:13:15;19.90;;;11.30;;
77880;SDS011;67077;50.298;18.996;2023-12-20T04:15:42;18.70;;;11.20;;
77880;SDS011;67077;50.298;18.996;2023-12-20T04:18:10;18.30;;;11.70;;
77880;SDS011;67077;50.298;18.996;2023-12-20T04:20:38;19.90;;;11.80;;
77880;SDS011;67077;50.298;18.996;2023-12-20T04:23:06;20.80;;;11.90;;
77880;SDS011;67077;50.298;18.996;2023-12-20T04:25:33;20.40;;;12.20;;
77880;SDS011;67077;50.298;18.996;2023-12-20T04:28:01;22.90;;;12.00;;
77880;SDS011;67077;50.298;18.996;2023-12-20T04:30:30;18.80;;;10.60;;
77880;SDS011;67077;50.298;18.996;2023-12-20T04:32:58;21.50;;;12.60;;
77880;SDS011;67077;50.298;18.996;2023-12-20T04:35:25;20.80;;;11.80;;
77880;SDS011;67077;50.298;18.996;2023-12-20T04:37:53;23.60;;;15.00;;
77880;SDS011;67077;50.298;18.996;2023-12-20T04:40:21;21.80;;;13.00;;
77880;SDS011;67077;50.298;18.996;2023-12-20T04:42:48;29.60;;;16.20;;
77880;SDS011;67077;50.298;18.996;2023-12-20T04:45:16;24.00;;;13.90;;
77880;SDS011;67077;50.298;18.996;2023-12-20T04:47:44;23.00;;;13.60;;
77880;SDS011;67077;50.298;18.996;2023-12-20T04:50:14;24.90;;;14.30;;
77880;SDS011;67077;50.298;18.996;2023-12-20T04:52:42;24.30;;;14.10;;
77880;SDS011;67077;50.298;18.996;2023-12-20T04:55:10;21.20;;;12.60;;
77880;SDS011;67077;50.298;18.996;2023-12-20T04:57:38;23.50;;;13.70;;
77880;SDS011;67077;50.298;18.996;2023-12-20T05:00:06;25.70;;;13.80;;
77880;SDS011;67077;50.298;18.996;2023-12-20T05:02:36;22.70;;;12.40;;
77880;SDS011;67077;50.298;18.996;2023-12-20T05:05:04;22.70;;;13.00;;
77880;SDS011;67077;50.298;18.996;2023-12-20T05:07:32;25.40;;;13.10;;
77880;SDS011;67077;50.298;18.996;2023-12-20T05:10:00;25.90;;;14.00;;
77880;SDS011;67077;50.298;18.996;2023-12-20T05:12:27;23.50;;;13.50;;
77880;SDS011;67077;50.298;18.996;2023-12-20T05:14:55;25.90;;;13.80;;
77880;SDS011;67077;50.298;18.996;2023-12-20T05:17:23;25.60;;;14.30;;
77880;SDS011;67077;50.298;18.996;2023-12-20T05:19:51;24.80;;;14.10;;
77880;SDS011;67077;50.298;18.996;2023-12-20T05:22:18;23.90;;;13.80;;
77880;SDS011;67077;50.298;18.996;2023-12-20T05:24:47;24.70;;;13.70;;
77880;SDS011;67077;50.298;18.996;2023-12-20T05:27:15;23.70;;;12.90;;
77880;SDS011;67077;50.298;18.996;2023-12-20T05:29:43;24.60;;;13.80;;
77880;SDS011;67077;50.298;18.996;2023-12-20T05:32:10;24.70;;;13.90;;
77880;SDS011;67077;50.298;18.996;2023-12-20T05:34:38;26.60;;;14.70;;
77880;SDS011;67077;50.298;18.996;2023-12-20T05:37:06;23.90;;;14.10;;
77880;SDS011;67077;50.298;18.996;2023-12-20T05:39:34;27.70;;;15.10;;
77880;SDS011;67077;50.298;18.996;2023-12-20T05:42:01;28.20;;;15.10;;
77880;SDS011;67077;50.298;18.996;2023-12-20T05:44:29;24.60;;;13.90;;
77880;SDS011;67077;50.298;18.996;2023-12-20T05:46:57;25.50;;;14.00;;
77880;SDS011;67077;50.298;18.996;2023-12-20T05:49:25;30.10;;;15.80;;
77880;SDS011;67077;50.298;18.996;2023-12-20T05:51:53;27.10;;;15.60;;
77880;SDS011;67077;50.298;18.996;2023-12-20T05:54:21;28.90;;;15.20;;
77880;SDS011;67077;50.298;18.996;2023-12-20T05:56:49;26.20;;;16.20;;
77880;SDS011;67077;50.298;18.996;2023-12-20T05:59:18;26.20;;;15.20;;
77880;SDS011;67077;50.298;18.996;2023-12-20T06:01:45;24.50;;;14.00;;
77880;SDS011;67077;50.298;18.996;2023-12-20T06:04:13;25.60;;;14.10;;
77880;SDS011;67077;50.298;18.996;2023-12-20T06:06:42;25.00;;;14.60;;
77880;SDS011;67077;50.298;18.996;2023-12-20T06:09:10;29.20;;;15.30;;
77880;SDS011;67077;50.298;18.996;2023-12-20T06:11:38;27.90;;;14.50;;
77880;SDS011;67077;50.298;18.996;2023-12-20T06:14:06;27.00;;;14.40;;
77880;SDS011;67077;50.298;18.996;2023-12-20T06:16:33;27.70;;;14.50;;
77880;SDS011;67077;50.298;18.996;2023-12-20T06:19:01;31.10;;;16.60;;
77880;SDS011;67077;50.298;18.996;2023-12-20T06:21:29;30.20;;;15.80;;
77880;SDS011;67077;50.298;18.996;2023-12-20T06:23:58;27.00;;;15.40;;
77880;SDS011;67077;50.298;18.996;2023-12-20T06:26:27;30.80;;;16.60;;
77880;SDS011;67077;50.298;18.996;2023-12-20T06:28:55;29.90;;;15.90;;
77880;SDS011;67077;50.298;18.996;2023-12-20T06:31:22;29.10;;;16.20;;
77880;SDS011;67077;50.298;18.996;2023-12-20T06:33:50;29.90;;;16.60;;
77880;SDS011;67077;50.298;18.996;2023-12-20T06:36:25;29.90;;;15.50;;
77880;SDS011;67077;50.298;18.996;2023-12-20T06:38:53;30.80;;;17.20;;
77880;SDS011;67077;50.298;18.996;2023-12-20T06:41:21;32.80;;;17.30;;
77880;SDS011;67077;50.298;18.996;2023-12-20T06:43:49;28.10;;;16.30;;
77880;SDS011;67077;50.298;18.996;2023-12-20T06:46:17;30.90;;;17.30;;
77880;SDS011;67077;50.298;18.996;2023-12-20T06:48:44;31.20;;;17.80;;
77880;SDS011;67077;50.298;18.996;2023-12-20T06:51:14;34.20;;;19.20;;
77880;SDS011;67077;50.298;18.996;2023-12-20T06:53:42;36.40;;;18.90;;
77880;SDS011;67077;50.298;18.996;2023-12-20T06:56:10;33.10;;;19.70;;
77880;SDS011;67077;50.298;18.996;2023-12-20T06:58:41;33.60;;;19.50;;
77880;SDS011;67077;50.298;18.996;2023-12-20T07:01:13;37.80;;;20.60;;
77880;SDS011;67077;50.298;18.996;2023-12-20T07:03:42;38.60;;;21.80;;
77880;SDS011;67077;50.298;18.996;2023-12-20T07:06:10;36.10;;;20.30;;
77880;SDS011;67077;50.298;18.996;2023-12-20T07:08:38;34.40;;;19.00;;
77880;SDS011;67077;50.298;18.996;2023-12-20T07:11:07;35.20;;;20.60;;
77880;SDS011;67077;50.298;18.996;2023-12-20T07:13:35;38.80;;;21.00;;
77880;SDS011;67077;50.298;18.996;2023-12-20T07:16:03;37.20;;;19.90;;
77880;SDS011;67077;50.298;18.996;2023-12-20T07:18:31;33.20;;;19.90;;
77880;SDS011;67077;50.298;18.996;2023-12-20T07:20:59;37.70;;;20.00;;
77880;SDS011;67077;50.298;18.996;2023-12-20T07:23:27;37.10;;;19.60;;
77880;SDS011;67077;50.298;18.996;2023-12-20T07:25:54;37.10;;;20.10;;
77880;SDS011;67077;50.298;18.996;2023-12-20T07:28:22;34.70;;;19.90;;
77880;SDS011;67077;50.298;18.996;2023-12-20T07:30:50;35.50;;;19.80;;
77880;SDS011;67077;50.298;18.996;2023-12-20T07:33:18;35.60;;;19.50;;
77880;SDS011;67077;50.298;18.996;2023-12-20T07:35:45;33.10;;;18.60;;
77880;SDS011;67077;50.298;18.996;2023-12-20T07:38:13;35.60;;;19.40;;
77880;SDS011;67077;50.298;18.996;2023-12-20T07:40:41;35.80;;;20.00;;
77880;SDS011;67077;50.298;18.996;2023-12-20T07:43:09;34.10;;;20.30;;
77880;SDS011;67077;50.298;18.996;2023-12-20T07:45:37;32.50;;;17.80;;
77880;SDS011;67077;50.298;18.996;2023-12-20T07:48:06;32.60;;;17.40;;
77880;SDS011;67077;50.298;18.996;2023-12-20T07:50:34;35.20;;;19.50;;
77880;SDS011;67077;50.298;18.996;2023-12-20T07:53:02;37.30;;;19.40;;
77880;SDS011;67077;50.298;18.996;2023-12-20T07:55:30;35.50;;;18.50;;
77880;SDS011;67077;50.298;18.996;2023-12-20T07:57:58;36.80;;;20.60;;
77880;SDS011;67077;50.298;18.996;2023-12-20T08:00:27;39.20;;;21.70;;
77880;SDS011;67077;50.298;18.996;2023-12-20T08:02:54;38.30;;;21.10;;
77880;SDS011;67077;50.298;18.996;2023-12-20T08:05:23;42.40;;;22.50;;
77880;SDS011;67077;50.298;18.996;2023-12-20T08:07:50;37.30;;;21.40;;
77880;SDS011;67077;50.298;18.996;2023-12-20T08:10:18;37.30;;;20.40;;
77880;SDS011;67077;50.298;18.996;2023-12-20T08:12:46;34.70;;;20.90;;
77880;SDS011;67077;50.298;18.996;2023-12-20T08:15:14;34.50;;;20.20;;
77880;SDS011;67077;50.298;18.996;2023-12-20T08:17:42;34.80;;;19.80;;
77880;SDS011;67077;50.298;18.996;2023-12-20T08:20:10;38.60;;;20.00;;
77880;SDS011;67077;50.298;18.996;2023-12-20T08:22:38;38.90;;;20.90;;
77880;SDS011;67077;50.298;18.996;2023-12-20T08:25:06;31.60;;;17.80;;
77880;SDS011;67077;50.298;18.996;2023-12-20T08:27:43;36.30;;;20.40;;
77880;SDS011;67077;50.298;18.996;2023-12-20T08:30:11;35.80;;;20.30;;
77880;SDS011;67077;50.298;18.996;2023-12-20T08:32:39;32.00;;;19.20;;
77880;SDS011;67077;50.298;18.996;2023-12-20T08:35:07;33.70;;;19.00;;
77880;SDS011;67077;50.298;18.996;2023-12-20T08:37:36;33.60;;;18.20;;
77880;SDS011;67077;50.298;18.996;2023-12-20T08:40:04;33.90;;;18.40;;
77880;SDS011;67077;50.298;18.996;2023-12-20T08:42:33;32.40;;;17.40;;
77880;SDS011;67077;50.298;18.996;2023-12-20T08:45:00;34.10;;;19.00;;
77880;SDS011;67077;50.298;18.996;2023-12-20T08:47:29;33.10;;;18.50;;
77880;SDS011;67077;50.298;18.996;2023-12-20T08:49:56;32.60;;;18.80;;
77880;SDS011;67077;50.298;18.996;2023-12-20T08:52:28;33.50;;;18.20;;
77880;SDS011;67077;50.298;18.996;2023-12-20T08:54:56;37.90;;;19.00;;
77880;SDS011;67077;50.298;18.996;2023-12-20T08:57:24;35.60;;;20.30;;
77880;SDS011;67077;50.298;18.996;2023-12-20T08:59:52;31.30;;;18.40;;
77880;SDS011;67077;50.298;18.996;2023-12-20T09:02:20;33.40;;;18.60;;
77880;SDS011;67077;50.298;18.996;2023-12-20T09:04:48;31.70;;;17.90;;
77880;SDS011;67077;50.298;18.996;2023-12-20T09:07:25;31.50;;;17.20;;
77880;SDS011;67077;50.298;18.996;2023-12-20T09:09:54;34.50;;;18.80;;
77880;SDS011;67077;50.298;18.996;2023-12-20T09:12:22;30.00;;;16.90;;
77880;SDS011;67077;50.298;18.996;2023-12-20T09:14:50;32.50;;;18.90;;
77880;SDS011;67077;50.298;18.996;2023-12-20T09:17:19;34.50;;;19.20;;
77880;SDS011;67077;50.298;18.996;2023-12-20T09:19:48;36.20;;;17.90;;
77880;SDS011;67077;50.298;18.996;2023-12-20T09:22:16;30.30;;;17.10;;
77880;SDS011;67077;50.298;18.996;2023-12-20T09:24:45;32.80;;;19.30;;
77880;SDS011;67077;50.298;18.996;2023-12-20T09:27:13;30.70;;;17.40;;
77880;SDS011;67077;50.298;18.996;2023-12-20T09:29:40;28.60;;;17.30;;
77880;SDS011;67077;50.298;18.996;2023-12-20T09:32:08;28.00;;;16.60;;
77880;SDS011;67077;50.298;18.996;2023-12-20T09:34:36;28.00;;;16.30;;
77880;SDS011;67077;50.298;18.996;2023-12-20T09:37:04;26.30;;;14.80;;
77880;SDS011;67077;50.298;18.996;2023-12-20T09:39:33;28.80;;;15.90;;
77880;SDS011;67077;50.298;18.996;2023-12-20T09:42:01;29.20;;;16.60;;
77880;SDS011;67077;50.298;18.996;2023-12-20T09:44:31;44.10;;;25.30;;
77880;SDS011;67077;50.298;18.996;2023-12-20T09:47:02;44.20;;;24.30;;
77880;SDS011;67077;50.298;18.996;2023-12-20T09:49:31;31.90;;;18.00;;
77880;SDS011;67077;50.298;18.996;2023-12-20T09:52:00;31.90;;;18.30;;
77880;SDS011;67077;50.298;18.996;2023-12-20T09:54:28;28.70;;;17.40;;
77880;SDS011;67077;50.298;18.996;2023-12-20T09:56:58;29.70;;;17.30;;
77880;SDS011;67077;50.298;18.996;2023-12-20T09:59:26;30.40;;;17.90;;
77880;SDS011;67077;50.298;18.996;2023-12-20T10:01:55;32.80;;;17.10;;
77880;SDS011;67077;50.298;18.996;2023-12-20T10:04:24;32.50;;;18.40;;
77880;SDS011;67077;50.298;18.996;2023-12-20T10:06:53;30.90;;;17.60;;
77880;SDS011;67077;50.298;18.996;2023-12-20T10:09:21;29.90;;;16.60;;
77880;SDS011;67077;50.298;18.996;2023-12-20T10:11:48;35.60;;;20.60;;
77880;SDS011;67077;50.298;18.996;2023-12-20T10:14:16;30.60;;;17.60;;
77880;SDS011;67077;50.298;18.996;2023-12-20T10:16:44;29.30;;;17.60;;
77880;SDS011;67077;50.298;18.996;2023-12-20T10:19:12;32.70;;;17.80;;
77880;SDS011;67077;50.298;18.996;2023-12-20T10:21:41;28.70;;;17.00;;
77880;SDS011;67077;50.298;18.996;2023-12-20T10:24:09;28.90;;;16.90;;
77880;SDS011;67077;50.298;18.996;2023-12-20T10:26:36;29.10;;;17.50;;
77880;SDS011;67077;50.298;18.996;2023-12-20T10:29:05;29.20;;;17.40;;
77880;SDS011;67077;50.298;18.996;2023-12-20T10:31:33;36.30;;;19.40;;
77880;SDS011;67077;50.298;18.996;2023-12-20T10:34:02;35.20;;;19.10;;
77880;SDS011;67077;50.298;18.996;2023-12-20T10:36:32;33.60;;;18.70;;
77880;SDS011;67077;50.298;18.996;2023-12-20T10:39:00;32.20;;;17.70;;
77880;SDS011;67077;50.298;18.996;2023-12-20T10:41:30;32.90;;;18.30;;
77880;SDS011;67077;50.298;18.996;2023-12-20T10:44:01;33.20;;;17.80;;
77880;SDS011;67077;50.298;18.996;2023-12-20T10:46:30;35.90;;;19.50;;
77880;SDS011;67077;50.298;18.996;2023-12-20T10:49:02;34.00;;;17.60;;
77880;SDS011;67077;50.298;18.996;2023-12-20T10:51:31;32.40;;;17.30;;
77880;SDS011;67077;50.298;18.996;2023-12-20T10:54:02;29.00;;;16.50;;
77880;SDS011;67077;50.298;18.996;2023-12-20T10:56:32;30.10;;;16.40;;
77880;SDS011;67077;50.298;18.996;2023-12-20T10:59:01;33.70;;;17.60;;
77880;SDS011;67077;50.298;18.996;2023-12-20T11:01:32;34.20;;;18.80;;
77880;SDS011;67077;50.298;18.996;2023-12-20T11:04:02;31.00;;;17.00;;
77880;SDS011;67077;50.298;18.996;2023-12-20T11:06:45;29.00;;;17.40;;
77880;SDS011;67077;50.298;18.996;2023-12-20T11:09:29;29.90;;;18.10;;
77880;SDS011;67077;50.298;18.996;2023-12-20T11:12:09;31.30;;;17.70;;
77880;SDS011;67077;50.298;18.996;2023-12-20T11:17:15;30.20;;;17.60;;
77880;SDS011;67077;50.298;18.996;2023-12-20T11:22:26;29.10;;;16.70;;
77880;SDS011;67077;50.298;18.996;2023-12-20T11:25:03;28.00;;;15.50;;
77880;SDS011;67077;50.298;18.996;2023-12-20T11:27:35;30.40;;;16.80;;
77880;SDS011;67077;50.298;18.996;2023-12-20T11:30:04;30.20;;;17.90;;
77880;SDS011;67077;50.298;18.996;2023-12-20T11:32:37;30.50;;;17.60;;
77880;SDS011;67077;50.298;18.996;2023-12-20T11:37:36;28.90;;;17.00;;
77880;SDS011;67077;50.298;18.996;2023-12-20T11:40:05;25.20;;;15.90;;
77880;SDS011;67077;50.298;18.996;2023-12-20T11:42:38;26.70;;;16.10;;
77880;SDS011;67077;50.298;18.996;2023-12-20T11:45:10;27.10;;;16.30;;
77880;SDS011;67077;50.298;18.996;2023-12-20T11:47:43;30.40;;;17.30;;
77880;SDS011;67077;50.298;18.996;2023-12-20T11:50:14;28.90;;;16.40;;
77880;SDS011;67077;50.298;18.996;2023-12-20T11:52:41;31.60;;;17.40;;
77880;SDS011;67077;50.298;18.996;2023-12-20T11:55:09;27.40;;;16.40;;
77880;SDS011;67077;50.298;18.996;2023-12-20T11:57:37;26.40;;;15.60;;
77880;SDS011;67077;50.298;18.996;2023-12-20T12:00:06;26.00;;;15.50;;
77880;SDS011;67077;50.298;18.996;2023-12-20T12:02:34;26.60;;;15.30;;
77880;SDS011;67077;50.298;18.996;2023-12-20T12:05:03;25.60;;;15.80;;
77880;SDS011;67077;50.298;18.996;2023-12-20T12:07:36;34.40;;;18.90;;
77880;SDS011;67077;50.298;18.996;2023-12-20T12:10:04;28.50;;;17.00;;
77880;SDS011;67077;50.298;18.996;2023-12-20T12:12:32;25.50;;;15.90;;
77880;SDS011;67077;50.298;18.996;2023-12-20T12:15:00;27.10;;;15.80;;
77880;SDS011;67077;50.298;18.996;2023-12-20T12:17:28;24.90;;;14.80;;
77880;SDS011;67077;50.298;18.996;2023-12-20T12:20:03;28.40;;;17.20;;
77880;SDS011;67077;50.298;18.996;2023-12-20T12:22:32;27.70;;;15.80;;
77880;SDS011;67077;50.298;18.996;2023-12-20T12:25:09;27.50;;;16.20;;
77880;SDS011;67077;50.298;18.996;2023-12-20T12:27:42;29.80;;;16.60;;
77880;SDS011;67077;50.298;18.996;2023-12-20T12:30:10;27.80;;;16.50;;
77880;SDS011;67077;50.298;18.996;2023-12-20T12:32:40;30.10;;;18.00;;
77880;SDS011;67077;50.298;18.996;2023-12-20T12:35:08;29.20;;;16.10;;
77880;SDS011;67077;50.298;18.996;2023-12-20T12:37:38;26.20;;;16.00;;
77880;SDS011;67077;50.298;18.996;2023-12-20T12:40:09;30.30;;;17.00;;
77880;SDS011;67077;50.298;18.996;2023-12-20T12:42:39;30.90;;;17.40;;
77880;SDS011;67077;50.298;18.996;2023-12-20T12:45:08;28.30;;;16.70;;
77880;SDS011;67077;50.298;18.996;2023-12-20T12:47:37;32.30;;;18.70;;
77880;SDS011;67077;50.298;18.996;2023-12-20T12:50:06;28.20;;;16.80;;
77880;SDS011;67077;50.298;18.996;2023-12-20T12:52:34;34.50;;;17.90;;
77880;SDS011;67077;50.298;18.996;2023-12-20T12:55:03;34.60;;;19.90;;
77880;SDS011;67077;50.298;18.996;2023-12-20T12:57:32;29.50;;;17.00;;
77880;SDS011;67077;50.298;18.996;2023-12-20T13:00:01;28.90;;;16.00;;
77880;SDS011;67077;50.298;18.996;2023-12-20T13:02:30;26.70;;;15.10;;
77880;SDS011;67077;50.298;18.996;2023-12-20T13:04:58;28.60;;;15.70;;
77880;SDS011;67077;50.298;18.996;2023-12-20T13:07:26;30.70;;;16.50;;
77880;SDS011;67077;50.298;18.996;2023-12-20T13:09:55;28.20;;;15.90;;
77880;SDS011;67077;50.298;18.996;2023-12-20T13:12:22;28.60;;;16.10;;
77880;SDS011;67077;50.298;18.996;2023-12-20T13:14:50;25.00;;;14.00;;
77880;SDS011;67077;50.298;18.996;2023-12-20T13:17:19;21.40;;;13.00;;
77880;SDS011;67077;50.298;18.996;2023-12-20T13:19:47;25.50;;;13.90;;
77880;SDS011;67077;50.298;18.996;2023-12-20T13:22:15;24.60;;;14.00;;
77880;SDS011;67077;50.298;18.996;2023-12-20T13:24:46;27.40;;;15.10;;
77880;SDS011;67077;50.298;18.996;2023-12-20T13:27:14;25.60;;;14.80;;
77880;SDS011;67077;50.298;18.996;2023-12-20T13:29:42;29.10;;;15.10;;
77880;SDS011;67077;50.298;18.996;2023-12-20T13:32:10;26.70;;;13.90;;
77880;SDS011;67077;50.298;18.996;2023-12-20T13:34:37;26.90;;;14.90;;
77880;SDS011;67077;50.298;18.996;2023-12-20T13:37:05;23.40;;;14.20;;
77880;SDS011;67077;50.298;18.996;2023-12-20T13:39:33;25.80;;;14.30;;
77880;SDS011;67077;50.298;18.996;2023-12-20T13:42:02;26.70;;;14.80;;
77880;SDS011;67077;50.298;18.996;2023-12-20T13:44:29;23.70;;;14.50;;
77880;SDS011;67077;50.298;18.996;2023-12-20T13:46:58;26.60;;;15.90;;
77880;SDS011;67077;50.298;18.996;2023-12-20T13:49:26;27.90;;;15.10;;
77880;SDS011;67077;50.298;18.996;2023-12-20T13:51:55;23.70;;;14.20;;
77880;SDS011;67077;50.298;18.996;2023-12-20T13:54:23;28.00;;;15.00;;
77880;SDS011;67077;50.298;18.996;2023-12-20T13:56:51;33.50;;;17.40;;
77880;SDS011;67077;50.298;18.996;2023-12-20T13:59:19;34.70;;;19.80;;
77880;SDS011;67077;50.298;18.996;2023-12-20T14:01:47;39.90;;;21.10;;
77880;SDS011;67077;50.298;18.996;2023-12-20T14:04:17;40.70;;;20.80;;
77880;SDS011;67077;50.298;18.996;2023-12-20T14:06:45;38.60;;;20.20;;
77880;SDS011;67077;50.298;18.996;2023-12-20T14:09:12;40.30;;;20.80;;
77880;SDS011;67077;50.298;18.996;2023-12-20T14:11:41;41.70;;;20.70;;
77880;SDS011;67077;50.298;18.996;2023-12-20T14:14:09;35.20;;;19.90;;
77880;SDS011;67077;50.298;18.996;2023-12-20T14:16:37;35.50;;;19.70;;
77880;SDS011;67077;50.298;18.996;2023-12-20T14:19:05;32.30;;;18.70;;
77880;SDS011;67077;50.298;18.996;2023-12-20T14:21:39;37.50;;;19.60;;
77880;SDS011;67077;50.298;18.996;2023-12-20T14:24:07;32.60;;;19.40;;
77880;SDS011;67077;50.298;18.996;2023-12-20T14:26:35;33.50;;;18.90;;